Time;durP1;ratioP1;P1;durP2;ratioP2;P2;SDS_P1;SDS_P2;PMS_P1;PMS_P2;Temp;Humidity;BMP_temperature;BMP_pressure;BME280_temperature;BME280_humidity;BME280_pressure;Samples;Min_cycle;Max_cycle;Signal;HPM_P1;HPM_P2
2023/02/05 00:00:21;;;;;;;;;;;;;;;;;;4422769;32;19937;-69
2023/02/05 00:02:46;;;;;;;;;;;;;;;;;;4423734;32;19934;-69
2023/02/05 00:05:11;;;;;;;;;;;;;;;;;;4428893;32;19948;-69
2023/02/05 00:07:36;;;;;;;;;;;;;;;;;;4428058;32;19937;-69
2023/02/05 00:10:01;;;;;;;;;;;;;;;;;;4420368;32;20387;-70
2023/02/05 00:12:26;;;;;;;;;;;;;;;;;;4422328;32;19986;-70
2023/02/05 00:14:51;;;;;;;;;;;;;;;;;;4422817;32;19989;-70
2023/02/05 00:17:16;;;;;;;;;;;;;;;;;;4424122;32;19952;-70
2023/02/05 00:19:41;;;;;;;;;;;;;;;;;;4420971;32;19933;-71
2023/02/05 00:22:07;;;;;;;;;;;;;;;;;;4423757;32;19945;-69
2023/02/05 00:24:32;;;;;;;;;;;;;;;;;;4421912;32;19980;-70
2023/02/05 00:26:57;;;;;;;;;;;;;;;;;;4421629;32;20274;-70
2023/02/05 00:29:22;;;;;;;;;;;;;;;;;;4420782;32;20315;-70
2023/02/05 00:31:48;;;;;;;;;;;;;;;;;;4422545;32;20354;-70
2023/02/05 00:34:13;;;;;;;;;;;;;;;;;;4421994;32;20186;-69
2023/02/05 00:36:38;;;;;;;;;;;;;;;;;;4421668;32;20315;-71
2023/02/05 00:39:03;;;;;;;;;;;;;;;;;;4420746;32;20341;-70
2023/02/05 00:41:28;;;;;;;;;;;;;;;;;;4418101;32;19989;-71
2023/02/05 00:43:53;;;;;;;;;;;;;;;;;;4406375;32;19985;-70
2023/02/05 00:46:19;;;;;;;;;;;;;;;;;;4404912;32;20336;-68
2023/02/05 00:48:44;;;;;;;;;;;;;;;;;;4405572;32;19948;-70
2023/02/05 00:51:09;;;;;;;;;;;;;;;;;;4406141;32;19948;-70
2023/02/05 00:53:34;;;;;;;;;;;;;;;;;;4406376;32;19980;-71
2023/02/05 00:55:59;;;;;;;;;;;;;;;;;;4406377;32;20228;-71
2023/02/05 00:58:24;;;;;;;;;;;;;;;;;;4407237;32;20380;-69
2023/02/05 01:00:49;;;;;;;;;;;;;;;;;;4405997;32;19945;-70
2023/02/05 01:03:14;;;;;;;;;;;;;;;;;;4404913;32;19941;-70
2023/02/05 01:05:40;;;;;;;;;;;;;;;;;;4406176;32;19972;-70
2023/02/05 01:08:05;;;;;;;;;;;;;;;;;;4404696;32;19933;-70
2023/02/05 01:10:30;;;;;;;;;;;;;;;;;;4417942;32;19955;-69
2023/02/05 01:12:55;;;;;;;;;;;;;;;;;;4421269;32;19937;-69
2023/02/05 01:15:20;;;;;;;;;;;;;;;;;;4421882;32;20378;-69
2023/02/05 01:17:45;;;;;;;;;;;;;;;;;;4420970;32;20064;-70
2023/02/05 01:20:10;;;;;;;;;;;;;;;;;;4419768;32;20315;-69
2023/02/05 01:22:36;;;;;;;;;;;;;;;;;;4420929;32;20357;-69
2023/02/05 01:25:01;;;;;;;;;;;;;;;;;;4422843;32;20303;-69
2023/02/05 01:27:26;;;;;;;;;;;;;;;;;;4421869;32;19967;-70
2023/02/05 01:29:51;;;;;;;;;;;;;;;;;;4421547;32;19941;-70
2023/02/05 01:32:16;;;;;;;;;;;;;;;;;;4420452;32;19941;-71
2023/02/05 01:34:41;;;;;;;;;;;;;;;;;;4420491;32;19937;-70
2023/02/05 01:37:06;;;;;;;;;;;;;;;;;;4421127;32;19978;-70
2023/02/05 01:39:32;;;;;;;;;;;;;;;;;;4420745;32;19977;-70
2023/02/05 01:41:57;;;;;;;;;;;;;;;;;;4421161;32;20332;-70
2023/02/05 01:44:25;;;;;;;;;;;;;;;;;;4420954;32;20337;-70
2023/02/05 01:46:50;;;;;;;;;;;;;;;;;;4422431;32;19936;-70
2023/02/05 01:49:15;;;;;;;;;;;;;;;;;;4422229;32;19960;-70
2023/02/05 01:51:40;;;;;;;;;;;;;;;;;;4419509;32;19948;-70
2023/02/05 01:54:07;;;;;;;;;;;;;;;;;;4421729;32;19936;-70
2023/02/05 01:56:32;;;;;;;;;;;;;;;;;;4419909;32;19951;-70
2023/02/05 01:58:57;;;;;;;;;;;;;;;;;;4420643;32;19933;-69
2023/02/05 02:01:22;;;;;;;;;;;;;;;;;;4420833;32;19944;-70
2023/02/05 02:03:47;;;;;;;;;;;;;;;;;;4419659;32;20311;-70
2023/02/05 02:06:12;;;;;;;;;;;;;;;;;;4420680;32;20343;-70
2023/02/05 02:08:37;;;;;;;;;;;;;;;;;;4420558;32;19947;-70
2023/02/05 02:11:02;;;;;;;;;;;;;;;;;;4420193;32;19974;-70
2023/02/05 02:13:28;;;;;;;;;;;;;;;;;;4420969;32;19946;-70
2023/02/05 02:15:53;;;;;;;;;;;;;;;;;;4421989;32;20351;-70
2023/02/05 02:18:27;;;;;;;;;;;;;;;;;;4421476;32;19933;-70
2023/02/05 02:20:52;;;;;;;;;;;;;;;;;;4421775;32;19976;-71
2023/02/05 02:23:17;;;;;;;;;;;;;;;;;;4421874;32;19990;-70
2023/02/05 02:25:43;;;;;;;;;;;;;;;;;;4420769;32;19937;-70
2023/02/05 02:28:08;;;;;;;;;;;;;;;;;;4424462;32;19941;-70
2023/02/05 02:30:33;;;;;;;;;;;;;;;;;;4423711;32;19960;-70
2023/02/05 02:32:58;;;;;;;;;;;;;;;;;;4423095;32;19933;-69
2023/02/05 02:35:23;;;;;;;;;;;;;;;;;;4425149;32;19985;-69
2023/02/05 02:37:48;;;;;;;;;;;;;;;;;;4421924;32;20319;-70
2023/02/05 02:40:13;;;;;;;;;;;;;;;;;;4423168;32;20324;-68
2023/02/05 02:42:38;;;;;;;;;;;;;;;;;;4421969;32;19937;-69
2023/02/05 02:45:03;;;;;;;;;;;;;;;;;;4423688;32;20004;-69
2023/02/05 02:47:29;;;;;;;;;;;;;;;;;;4425958;32;20314;-69
2023/02/05 02:49:54;;;;;;;;;;;;;;;;;;4423806;32;20008;-69
2023/02/05 02:52:19;;;;;;;;;;;;;;;;;;4423585;32;19933;-69
2023/02/05 02:54:44;;;;;;;;;;;;;;;;;;4422959;32;20011;-69
2023/02/05 02:57:09;;;;;;;;;;;;;;;;;;4424628;32;20368;-70
2023/02/05 02:59:34;;;;;;;;;;;;;;;;;;4422153;32;20291;-69
2023/02/05 03:01:59;;;;;;;;;;;;;;;;;;4424464;32;19949;-69
2023/02/05 03:04:25;;;;;;;;;;;;;;;;;;4422999;32;20335;-69
2023/02/05 03:06:50;;;;;;;;;;;;;;;;;;4425075;32;19952;-70
2023/02/05 03:09:15;;;;;;;;;;;;;;;;;;4421288;32;19949;-69
2023/02/05 03:11:40;;;;;;;;;;;;;;;;;;4422806;32;19933;-70
2023/02/05 03:14:05;;;;;;;;;;;;;;;;;;4422721;32;19937;-70
2023/02/05 03:16:30;;;;;;;;;;;;;;;;;;4423202;32;19952;-70
2023/02/05 03:18:55;;;;;;;;;;;;;;;;;;4421558;32;19945;-69
2023/02/05 03:21:22;;;;;;;;;;;;;;;;;;4424461;32;20291;-70
2023/02/05 03:23:47;;;;;;;;;;;;;;;;;;4422700;32;19993;-71
2023/02/05 03:26:12;;;;;;;;;;;;;;;;;;4422250;32;19948;-70
2023/02/05 03:28:37;;;;;;;;;;;;;;;;;;4422476;32;19945;-70
2023/02/05 03:31:03;;;;;;;;;;;;;;;;;;4423804;32;20002;-69
2023/02/05 03:33:28;;;;;;;;;;;;;;;;;;4423008;32;19940;-70
2023/02/05 03:35:53;;;;;;;;;;;;;;;;;;4421518;32;20326;-70
2023/02/05 03:38:18;;;;;;;;;;;;;;;;;;4422184;32;20330;-70
2023/02/05 03:40:43;;;;;;;;;;;;;;;;;;4424914;32;19980;-70
2023/02/05 03:43:08;;;;;;;;;;;;;;;;;;4422947;32;19933;-70
2023/02/05 03:45:33;;;;;;;;;;;;;;;;;;4424043;32;20372;-70
2023/02/05 03:47:58;;;;;;;;;;;;;;;;;;4423093;32;19956;-70
2023/02/05 03:50:23;;;;;;;;;;;;;;;;;;4422947;32;19945;-71
2023/02/05 03:52:49;;;;;;;;;;;;;;;;;;4421271;32;20278;-71
2023/02/05 03:55:14;;;;;;;;;;;;;;;;;;4422618;32;20286;-71
2023/02/05 03:57:39;;;;;;;;;;;;;;;;;;4423816;32;19937;-71
2023/02/05 04:00:04;;;;;;;;;;;;;;;;;;4423566;32;19960;-71
2023/02/05 04:02:29;;;;;;;;;;;;;;;;;;4420905;32;19937;-71
2023/02/05 04:04:54;;;;;;;;;;;;;;;;;;4422427;32;19988;-71
2023/02/05 04:07:19;;;;;;;;;;;;;;;;;;4424493;32;19933;-72
2023/02/05 04:09:44;;;;;;;;;;;;;;;;;;4421923;32;19945;-72
2023/02/05 04:12:09;;;;;;;;;;;;;;;;;;4422494;32;20072;-72
2023/02/05 04:14:34;;;;;;;;;;;;;;;;;;4421767;32;20323;-73
2023/02/05 04:17:00;;;;;;;;;;;;;;;;;;4421945;32;19957;-74
2023/02/05 04:19:25;;;;;;;;;;;;;;;;;;4424269;32;19998;-73
2023/02/05 04:21:50;;;;;;;;;;;;;;;;;;4421644;32;19937;-74
2023/02/05 04:24:15;;;;;;;;;;;;;;;;;;4423389;32;19949;-74
2023/02/05 04:26:40;;;;;;;;;;;;;;;;;;4423434;32;19966;-73
2023/02/05 04:29:05;;;;;;;;;;;;;;;;;;4420922;32;19981;-73
2023/02/05 04:31:30;;;;;;;;;;;;;;;;;;4422557;32;19934;-72
2023/02/05 04:33:55;;;;;;;;;;;;;;;;;;4423606;32;19941;-72
2023/02/05 04:36:20;;;;;;;;;;;;;;;;;;4422183;32;20287;-72
2023/02/05 04:38:45;;;;;;;;;;;;;;;;;;4422156;32;19941;-72
2023/02/05 04:41:11;;;;;;;;;;;;;;;;;;4423379;32;19937;-72
2023/02/05 04:43:36;;;;;;;;;;;;;;;;;;4423520;32;19933;-71
2023/02/05 04:46:01;;;;;;;;;;;;;;;;;;4422108;32;19937;-72
2023/02/05 04:48:26;;;;;;;;;;;;;;;;;;4421190;32;20011;-72
2023/02/05 04:50:51;;;;;;;;;;;;;;;;;;4421637;32;20338;-72
2023/02/05 04:53:16;;;;;;;;;;;;;;;;;;4421597;32;19932;-72
2023/02/05 04:55:41;;;;;;;;;;;;;;;;;;4420529;32;19937;-71
2023/02/05 04:58:06;;;;;;;;;;;;;;;;;;4420304;32;20022;-72
2023/02/05 05:00:31;;;;;;;;;;;;;;;;;;4421991;32;19952;-71
2023/02/05 05:02:57;;;;;;;;;;;;;;;;;;4423591;32;19937;-72
2023/02/05 05:05:22;;;;;;;;;;;;;;;;;;4420875;32;19957;-73
2023/02/05 05:07:47;;;;;;;;;;;;;;;;;;4422956;32;19941;-72
2023/02/05 05:10:12;;;;;;;;;;;;;;;;;;4421789;32;20340;-72
2023/02/05 05:12:37;;;;;;;;;;;;;;;;;;4420767;32;19948;-72
2023/02/05 05:15:02;;;;;;;;;;;;;;;;;;4421035;32;19976;-72
2023/02/05 05:17:28;;;;;;;;;;;;;;;;;;4420790;32;19941;-72
2023/02/05 05:19:53;;;;;;;;;;;;;;;;;;4420987;32;20262;-72
2023/02/05 05:22:18;;;;;;;;;;;;;;;;;;4422572;32;20336;-73
2023/02/05 05:24:43;;;;;;;;;;;;;;;;;;4422944;32;20007;-72
2023/02/05 05:27:08;;;;;;;;;;;;;;;;;;4421627;32;19985;-73
2023/02/05 05:29:33;;;;;;;;;;;;;;;;;;4420441;32;19984;-72
2023/02/05 05:31:58;;;;;;;;;;;;;;;;;;4421134;32;19937;-72
2023/02/05 05:34:23;;;;;;;;;;;;;;;;;;4423520;32;20349;-72
2023/02/05 05:36:48;;;;;;;;;;;;;;;;;;4422644;32;19937;-72
2023/02/05 05:44:41;;;;;;;;;;;;;;;;;;4420981;32;20286;-71
2023/02/05 05:47:06;;;;;;;;;;;;;;;;;;4420631;32;19983;-71
2023/02/05 05:49:32;;;;;;;;;;;;;;;;;;4419382;32;19955;-72
2023/02/05 05:51:57;;;;;;;;;;;;;;;;;;4419748;32;19956;-71
2023/02/05 05:54:22;;;;;;;;;;;;;;;;;;4420739;32;20942;-71
2023/02/05 05:56:48;;;;;;;;;;;;;;;;;;4421342;32;19941;-70
2023/02/05 05:59:13;;;;;;;;;;;;;;;;;;4420937;32;19969;-71
2023/02/05 06:01:38;;;;;;;;;;;;;;;;;;4420332;32;19944;-71
2023/02/05 06:04:03;;;;;;;;;;;;;;;;;;4419452;32;19973;-71
2023/02/05 06:06:28;;;;;;;;;;;;;;;;;;4422170;32;19933;-71
2023/02/05 06:08:53;;;;;;;;;;;;;;;;;;4421348;32;19987;-70
2023/02/05 06:11:19;;;;;;;;;;;;;;;;;;4421640;32;19987;-70
2023/02/05 06:13:44;;;;;;;;;;;;;;;;;;4422209;32;19984;-73
2023/02/05 06:16:09;;;;;;;;;;;;;;;;;;4421736;32;19937;-71
2023/02/05 06:18:34;;;;;;;;;;;;;;;;;;4421268;32;19969;-71
2023/02/05 06:21:01;;;;;;;;;;;;;;;;;;4419097;32;19937;-71
2023/02/05 06:23:26;;;;;;;;;;;;;;;;;;4420458;32;19941;-71
2023/02/05 06:25:51;;;;;;;;;;;;;;;;;;4422187;32;19933;-70
2023/02/05 06:28:18;;;;;;;;;;;;;;;;;;4420917;32;19948;-71
2023/02/05 06:30:43;;;;;;;;;;;;;;;;;;4420208;32;20309;-70
2023/02/05 06:33:10;;;;;;;;;;;;;;;;;;4422097;32;20336;-70
2023/02/05 06:35:35;;;;;;;;;;;;;;;;;;4419531;32;19937;-69
2023/02/05 06:38:00;;;;;;;;;;;;;;;;;;4420723;32;19982;-70
2023/02/05 06:40:26;;;;;;;;;;;;;;;;;;4420695;32;19990;-69
2023/02/05 06:42:52;;;;;;;;;;;;;;;;;;4420462;32;19986;-71
2023/02/05 06:45:17;;;;;;;;;;;;;;;;;;4421248;32;19961;-70
2023/02/05 06:47:42;;;;;;;;;;;;;;;;;;4420764;32;19933;-70
2023/02/05 06:50:07;;;;;;;;;;;;;;;;;;4420657;32;20328;-70
2023/02/05 06:52:32;;;;;;;;;;;;;;;;;;4420747;32;19956;-70
2023/02/05 06:54:57;;;;;;;;;;;;;;;;;;4421601;32;19986;-70
2023/02/05 06:57:22;;;;;;;;;;;;;;;;;;4420587;32;19933;-70
2023/02/05 06:59:47;;;;;;;;;;;;;;;;;;4418831;32;19971;-70
2023/02/05 07:02:13;;;;;;;;;;;;;;;;;;4419339;32;19971;-70
2023/02/05 07:04:38;;;;;;;;;;;;;;;;;;4419823;32;20293;-70
2023/02/05 07:07:03;;;;;;;;;;;;;;;;;;4420853;32;20437;-70
2023/02/05 07:09:28;;;;;;;;;;;;;;;;;;4420102;32;20307;-70
2023/02/05 07:11:53;;;;;;;;;;;;;;;;;;4420424;32;19966;-70
2023/02/05 07:14:18;;;;;;;;;;;;;;;;;;4424872;32;19933;-70
2023/02/05 07:16:44;;;;;;;;;;;;;;;;;;4424731;32;19973;-70
2023/02/05 07:19:09;;;;;;;;;;;;;;;;;;4423443;32;19942;-70
2023/02/05 07:21:34;;;;;;;;;;;;;;;;;;4422911;32;20309;-70
2023/02/05 07:23:59;;;;;;;;;;;;;;;;;;4424708;32;20287;-71
2023/02/05 07:26:24;;;;;;;;;;;;;;;;;;4424303;32;19969;-69
2023/02/05 07:28:49;;;;;;;;;;;;;;;;;;4421684;32;19960;-69
2023/02/05 07:31:14;;;;;;;;;;;;;;;;;;4424330;32;19937;-71
2023/02/05 07:33:39;;;;;;;;;;;;;;;;;;4422541;32;20255;-69
2023/02/05 07:36:04;;;;;;;;;;;;;;;;;;4421196;32;19933;-69
2023/02/05 07:38:30;;;;;;;;;;;;;;;;;;4422919;32;19988;-71
2023/02/05 07:40:55;;;;;;;;;;;;;;;;;;4422960;32;19942;-70
2023/02/05 07:43:20;;;;;;;;;;;;;;;;;;4423984;32;19933;-71
2023/02/05 07:45:45;;;;;;;;;;;;;;;;;;4422758;32;19937;-70
2023/02/05 07:48:10;;;;;;;;;;;;;;;;;;4424284;32;19948;-70
2023/02/05 07:50:35;;;;;;;;;;;;;;;;;;4421024;32;19952;-70
2023/02/05 07:53:00;;;;;;;;;;;;;;;;;;4423246;32;20311;-71
2023/02/05 07:55:25;;;;;;;;;;;;;;;;;;4420755;32;19953;-70
2023/02/05 07:57:50;;;;;;;;;;;;;;;;;;4422572;32;19933;-70
2023/02/05 08:00:16;;;;;;;;;;;;;;;;;;4410923;32;19984;-70
2023/02/05 08:02:41;;;;;;;;;;;;;;;;;;4407704;32;19953;-71
2023/02/05 08:05:06;;;;;;;;;;;;;;;;;;4412165;32;20307;-70
2023/02/05 08:07:31;;;;;;;;;;;;;;;;;;4414393;32;20001;-70
2023/02/05 08:09:56;;;;;;;;;;;;;;;;;;4411634;32;19945;-70
2023/02/05 08:12:21;;;;;;;;;;;;;;;;;;4412423;32;19933;-70
2023/02/05 08:14:46;;;;;;;;;;;;;;;;;;4407223;32;19933;-71
2023/02/05 08:17:12;;;;;;;;;;;;;;;;;;4410303;32;19938;-69
2023/02/05 08:19:37;;;;;;;;;;;;;;;;;;4407474;32;19977;-71
2023/02/05 08:22:02;;;;;;;;;;;;;;;;;;4407327;32;19948;-69
2023/02/05 08:24:27;;;;;;;;;;;;;;;;;;4422132;32;20260;-71
2023/02/05 08:26:53;;;;;;;;;;;;;;;;;;4422207;32;19947;-70
2023/02/05 08:29:18;;;;;;;;;;;;;;;;;;4421879;32;19982;-74
2023/02/05 08:31:43;;;;;;;;;;;;;;;;;;4420899;32;19964;-70
2023/02/05 08:34:08;;;;;;;;;;;;;;;;;;4422220;32;19933;-70
2023/02/05 08:36:33;;;;;;;;;;;;;;;;;;4420628;32;19937;-71
2023/02/05 08:38:58;;;;;;;;;;;;;;;;;;4421296;32;19932;-71
2023/02/05 08:41:23;;;;;;;;;;;;;;;;;;4422394;32;19933;-71
2023/02/05 08:43:48;;;;;;;;;;;;;;;;;;4422381;32;19942;-72
2023/02/05 08:46:13;;;;;;;;;;;;;;;;;;4423365;32;20006;-71
2023/02/05 08:48:38;;;;;;;;;;;;;;;;;;4421824;32;19933;-71
2023/02/05 08:51:04;;;;;;;;;;;;;;;;;;4420405;32;20259;-71
2023/02/05 08:53:29;;;;;;;;;;;;;;;;;;4419222;32;19978;-72
2023/02/05 08:55:54;;;;;;;;;;;;;;;;;;4421407;32;19983;-72
2023/02/05 08:58:19;;;;;;;;;;;;;;;;;;4421439;32;19975;-71
2023/02/05 09:00:44;;;;;;;;;;;;;;;;;;4422056;32;19970;-71
2023/02/05 09:03:10;;;;;;;;;;;;;;;;;;4421028;32;19966;-70
2023/02/05 09:05:35;;;;;;;;;;;;;;;;;;4422648;32;19951;-70
2023/02/05 09:08:00;;;;;;;;;;;;;;;;;;4421653;32;19972;-72
2023/02/05 09:10:25;;;;;;;;;;;;;;;;;;4421650;32;19992;-71
2023/02/05 09:12:51;;;;;;;;;;;;;;;;;;4421283;32;19979;-71
2023/02/05 09:15:17;;;;;;;;;;;;;;;;;;4421333;32;19956;-71
2023/02/05 09:17:42;;;;;;;;;;;;;;;;;;4421676;32;19933;-72
2023/02/05 09:20:07;;;;;;;;;;;;;;;;;;4421070;32;19945;-70
2023/02/05 09:22:32;;;;;;;;;;;;;;;;;;4422418;32;19944;-70
2023/02/05 09:24:57;;;;;;;;;;;;;;;;;;4421217;32;19937;-69
2023/02/05 09:27:22;;;;;;;;;;;;;;;;;;4420594;32;19937;-71
2023/02/05 09:29:47;;;;;;;;;;;;;;;;;;4420066;32;19933;-70
2023/02/05 09:32:12;;;;;;;;;;;;;;;;;;4421016;32;19933;-71
2023/02/05 09:34:37;;;;;;;;;;;;;;;;;;4420540;32;19941;-70
2023/02/05 09:37:03;;;;;;;;;;;;;;;;;;4420728;32;20308;-71
2023/02/05 09:39:28;;;;;;;;;;;;;;;;;;4420448;32;19963;-71
2023/02/05 09:41:56;;;;;;;;;;;;;;;;;;4421606;32;20018;-71
2023/02/05 09:44:21;;;;;;;;;;;;;;;;;;4422722;32;19938;-71
2023/02/05 09:46:46;;;;;;;;;;;;;;;;;;4420929;32;20277;-72
2023/02/05 09:49:11;;;;;;;;;;;;;;;;;;4420664;32;19978;-71
2023/02/05 09:51:36;;;;;;;;;;;;;;;;;;4420738;32;19937;-70
2023/02/05 09:54:01;;;;;;;;;;;;;;;;;;4421110;32;19943;-70
2023/02/05 09:56:26;;;;;;;;;;;;;;;;;;4421633;32;19933;-70
2023/02/05 09:58:51;;;;;;;;;;;;;;;;;;4419640;32;19937;-71
2023/02/05 10:01:17;;;;;;;;;;;;;;;;;;4420956;32;19948;-70
2023/02/05 10:03:43;;;;;;;;;;;;;;;;;;4420742;32;19933;-71
2023/02/05 10:06:08;;;;;;;;;;;;;;;;;;4420584;32;20003;-70
2023/02/05 10:08:33;;;;;;;;;;;;;;;;;;4420263;32;19937;-71
2023/02/05 10:10:58;;;;;;;;;;;;;;;;;;4420679;32;19937;-72
2023/02/05 10:13:23;;;;;;;;;;;;;;;;;;4420684;32;20521;-72
2023/02/05 10:15:49;;;;;;;;;;;;;;;;;;4420941;32;19971;-70
2023/02/05 10:18:14;;;;;;;;;;;;;;;;;;4420380;32;19941;-70
2023/02/05 10:20:39;;;;;;;;;;;;;;;;;;4421887;32;19982;-71
2023/02/05 10:23:05;;;;;;;;;;;;;;;;;;4419414;32;20308;-70
2023/02/05 10:25:30;;;;;;;;;;;;;;;;;;4421447;32;19975;-71
2023/02/05 10:27:56;;;;;;;;;;;;;;;;;;4420395;32;19937;-70
2023/02/05 10:30:21;;;;;;;;;;;;;;;;;;4419088;32;19938;-70
2023/02/05 10:32:46;;;;;;;;;;;;;;;;;;4421270;32;19941;-70
2023/02/05 10:35:11;;;;;;;;;;;;;;;;;;4419364;32;20244;-70
2023/02/05 10:37:36;;;;;;;;;;;;;;;;;;4420832;32;19933;-70
2023/02/05 10:40:02;;;;;;;;;;;;;;;;;;4420687;32;19952;-71
2023/02/05 10:42:27;;;;;;;;;;;;;;;;;;4419040;32;19929;-71
2023/02/05 10:44:52;;;;;;;;;;;;;;;;;;4421004;32;19967;-70
2023/02/05 10:47:18;;;;;;;;;;;;;;;;;;4422586;32;19951;-71
2023/02/05 10:49:43;;;;;;;;;;;;;;;;;;4424199;32;19941;-70
2023/02/05 10:52:08;;;;;;;;;;;;;;;;;;4423341;32;19991;-70
2023/02/05 10:54:33;;;;;;;;;;;;;;;;;;4423428;32;19964;-71
2023/02/05 10:56:58;;;;;;;;;;;;;;;;;;4422048;32;19937;-71
2023/02/05 10:59:23;;;;;;;;;;;;;;;;;;4424863;32;19952;-69
2023/02/05 11:01:48;;;;;;;;;;;;;;;;;;4424378;32;19955;-70
2023/02/05 11:04:13;;;;;;;;;;;;;;;;;;4425228;32;20091;-70
2023/02/05 11:06:39;;;;;;;;;;;;;;;;;;4422741;32;19951;-71
2023/02/05 11:09:04;;;;;;;;;;;;;;;;;;4422972;32;19972;-71
2023/02/05 11:11:29;;;;;;;;;;;;;;;;;;4423883;32;19933;-70
2023/02/05 11:13:54;;;;;;;;;;;;;;;;;;4423540;32;19969;-71
2023/02/05 11:16:19;;;;;;;;;;;;;;;;;;4423538;32;19937;-71
2023/02/05 11:18:44;;;;;;;;;;;;;;;;;;4422797;32;20032;-71
2023/02/05 11:21:09;;;;;;;;;;;;;;;;;;4423476;32;19937;-71
2023/02/05 11:23:38;;;;;;;;;;;;;;;;;;4422197;32;19972;-71
2023/02/05 11:26:03;;;;;;;;;;;;;;;;;;4423110;32;20027;-71
2023/02/05 11:28:30;;;;;;;;;;;;;;;;;;4422430;32;20228;-71
2023/02/05 11:30:55;;;;;;;;;;;;;;;;;;4422560;32;19951;-71
2023/02/05 11:33:21;;;;;;;;;;;;;;;;;;4422562;32;19936;-71
2023/02/05 11:35:46;;;;;;;;;;;;;;;;;;4422777;32;19971;-71
2023/02/05 11:38:11;;;;;;;;;;;;;;;;;;4423398;32;19933;-71
2023/02/05 11:40:36;;;;;;;;;;;;;;;;;;4422027;32;19945;-70
2023/02/05 11:43:01;;;;;;;;;;;;;;;;;;4422867;32;19951;-71
2023/02/05 11:45:26;;;;;;;;;;;;;;;;;;4424005;32;19955;-71
2023/02/05 11:47:51;;;;;;;;;;;;;;;;;;4416719;32;19938;-71
2023/02/05 11:50:16;;;;;;;;;;;;;;;;;;4407078;32;19975;-71
2023/02/05 11:52:42;;;;;;;;;;;;;;;;;;4407556;32;19967;-70
2023/02/05 11:55:08;;;;;;;;;;;;;;;;;;4407842;32;20279;-69
2023/02/05 11:57:34;;;;;;;;;;;;;;;;;;4406570;32;19937;-71
2023/02/05 11:59:59;;;;;;;;;;;;;;;;;;4406758;32;20328;-71
2023/02/05 12:02:24;;;;;;;;;;;;;;;;;;4414215;32;20394;-71
2023/02/05 12:04:49;;;;;;;;;;;;;;;;;;4421902;32;20307;-70
2023/02/05 12:07:14;;;;;;;;;;;;;;;;;;4421736;32;19964;-71
2023/02/05 12:09:39;;;;;;;;;;;;;;;;;;4420627;32;19955;-71
2023/02/05 12:12:10;;;;;;;;;;;;;;;;;;4422191;32;20009;-71
2023/02/05 12:14:35;;;;;;;;;;;;;;;;;;4417777;32;19929;-71
2023/02/05 12:17:00;;;;;;;;;;;;;;;;;;4418430;32;20052;-71
2023/02/05 12:19:25;;;;;;;;;;;;;;;;;;4421118;32;19946;-70
2023/02/05 12:21:51;;;;;;;;;;;;;;;;;;4419796;32;19987;-71
2023/02/05 12:24:16;;;;;;;;;;;;;;;;;;4420584;32;20281;-71
2023/02/05 12:26:41;;;;;;;;;;;;;;;;;;4414327;32;19996;-71
2023/02/05 12:29:06;;;;;;;;;;;;;;;;;;4404830;32;19941;-71
2023/02/05 12:31:31;;;;;;;;;;;;;;;;;;4416438;32;19967;-70
2023/02/05 12:33:56;;;;;;;;;;;;;;;;;;4421721;32;19967;-71
2023/02/05 12:36:21;;;;;;;;;;;;;;;;;;4418297;32;20383;-71
2023/02/05 12:38:46;;;;;;;;;;;;;;;;;;4408583;32;19933;-70
2023/02/05 12:41:11;;;;;;;;;;;;;;;;;;4421968;32;19937;-70
2023/02/05 12:43:37;;;;;;;;;;;;;;;;;;4419613;32;20243;-71
2023/02/05 12:46:03;;;;;;;;;;;;;;;;;;4421489;32;19945;-71
2023/02/05 12:48:28;;;;;;;;;;;;;;;;;;4421843;32;19952;-70
2023/02/05 12:50:53;;;;;;;;;;;;;;;;;;4421216;32;19960;-71
2023/02/05 12:53:18;;;;;;;;;;;;;;;;;;4421203;32;19994;-70
2023/02/05 12:55:43;;;;;;;;;;;;;;;;;;4421014;32;20397;-70
2023/02/05 12:58:09;;;;;;;;;;;;;;;;;;4419338;32;19968;-70
2023/02/05 13:00:34;;;;;;;;;;;;;;;;;;4421122;32;19966;-70
2023/02/05 13:03:00;;;;;;;;;;;;;;;;;;4422961;32;19949;-70
2023/02/05 13:05:25;;;;;;;;;;;;;;;;;;4421365;32;19971;-71
2023/02/05 13:07:51;;;;;;;;;;;;;;;;;;4420456;32;19937;-71
2023/02/05 13:10:17;;;;;;;;;;;;;;;;;;4422578;32;19984;-70
2023/02/05 13:12:42;;;;;;;;;;;;;;;;;;4420759;32;20353;-71
2023/02/05 13:15:07;;;;;;;;;;;;;;;;;;4421181;32;19952;-70
2023/02/05 13:17:32;;;;;;;;;;;;;;;;;;4420742;32;19945;-71
2023/02/05 13:19:57;;;;;;;;;;;;;;;;;;4421292;32;19941;-70
2023/02/05 13:28:38;;;;;;;;;;;;;;;;;;4421171;32;19955;-71
2023/02/05 13:30:51;;;;;;;;;;;;;;;;;;4420868;32;19948;-71
2023/02/05 13:33:16;;;;;;;;;;;;;;;;;;4422662;32;19941;-72
2023/02/05 13:35:41;;;;;;;;;;;;;;;;;;4425058;32;19933;-71
2023/02/05 13:38:09;;;;;;;;;;;;;;;;;;4421325;32;19937;-70
2023/02/05 13:40:34;;;;;;;;;;;;;;;;;;4421677;32;19987;-71
2023/02/05 13:42:59;;;;;;;;;;;;;;;;;;4412776;32;19949;-71
2023/02/05 13:45:24;;;;;;;;;;;;;;;;;;4405592;32;19983;-72
2023/02/05 13:47:49;;;;;;;;;;;;;;;;;;4415414;32;19979;-71
2023/02/05 13:50:14;;;;;;;;;;;;;;;;;;4417433;32;19988;-71
2023/02/05 13:52:40;;;;;;;;;;;;;;;;;;4412767;32;20349;-70
2023/02/05 13:55:05;;;;;;;;;;;;;;;;;;4404131;32;19975;-71
2023/02/05 13:57:30;;;;;;;;;;;;;;;;;;4405316;32;19974;-70
2023/02/05 13:59:55;;;;;;;;;;;;;;;;;;4415771;32;19938;-71
2023/02/05 14:02:20;;;;;;;;;;;;;;;;;;4417704;32;19974;-70
2023/02/05 14:04:52;;;;;;;;;;;;;;;;;;4406560;32;20271;-71
2023/02/05 14:07:17;;;;;;;;;;;;;;;;;;4405012;32;19957;-73
2023/02/05 14:09:42;;;;;;;;;;;;;;;;;;4405243;32;19938;-71
2023/02/05 14:12:07;;;;;;;;;;;;;;;;;;4405268;32;19952;-71
2023/02/05 14:14:33;;;;;;;;;;;;;;;;;;4411796;32;19933;-70
2023/02/05 14:16:58;;;;;;;;;;;;;;;;;;4413354;32;19933;-71
2023/02/05 14:19:24;;;;;;;;;;;;;;;;;;4414585;32;19955;-71
2023/02/05 14:21:49;;;;;;;;;;;;;;;;;;4419833;32;19934;-71
2023/02/05 14:24:14;;;;;;;;;;;;;;;;;;4422632;32;19978;-72
2023/02/05 14:26:40;;;;;;;;;;;;;;;;;;4423915;32;19941;-72
2023/02/05 14:29:05;;;;;;;;;;;;;;;;;;4409706;32;19941;-72
2023/02/05 14:31:30;;;;;;;;;;;;;;;;;;4407136;32;19968;-71
2023/02/05 14:33:55;;;;;;;;;;;;;;;;;;4410786;32;20377;-71
2023/02/05 14:36:21;;;;;;;;;;;;;;;;;;4417173;32;19977;-71
2023/02/05 14:38:46;;;;;;;;;;;;;;;;;;4423932;32;19956;-71
2023/02/05 14:41:11;;;;;;;;;;;;;;;;;;4422606;32;19933;-72
2023/02/05 14:43:36;;;;;;;;;;;;;;;;;;4412547;32;19963;-71
2023/02/05 14:46:01;;;;;;;;;;;;;;;;;;4422756;32;20318;-72
2023/02/05 14:48:27;;;;;;;;;;;;;;;;;;4423621;32;19948;-72
2023/02/05 14:50:52;;;;;;;;;;;;;;;;;;4425208;32;19955;-70
2023/02/05 14:53:17;;;;;;;;;;;;;;;;;;4423238;32;19945;-71
2023/02/05 14:55:42;;;;;;;;;;;;;;;;;;4422261;32;19945;-71
2023/02/05 14:58:09;;;;;;;;;;;;;;;;;;4423686;32;19964;-72
2023/02/05 15:00:34;;;;;;;;;;;;;;;;;;4424398;32;20425;-70
2023/02/05 15:03:00;;;;;;;;;;;;;;;;;;4422795;32;19944;-71
2023/02/05 15:05:25;;;;;;;;;;;;;;;;;;4424799;32;19934;-72
2023/02/05 15:07:50;;;;;;;;;;;;;;;;;;4422274;32;20287;-72
2023/02/05 15:10:15;;;;;;;;;;;;;;;;;;4415011;32;19945;-71
2023/02/05 15:12:40;;;;;;;;;;;;;;;;;;4416059;32;19938;-71
2023/02/05 15:15:06;;;;;;;;;;;;;;;;;;4409869;32;20318;-71
2023/02/05 15:17:32;;;;;;;;;;;;;;;;;;4412620;32;19951;-73
2023/02/05 15:19:57;;;;;;;;;;;;;;;;;;4421406;32;19940;-71
2023/02/05 15:22:22;;;;;;;;;;;;;;;;;;4422647;32;19937;-71
2023/02/05 15:24:47;;;;;;;;;;;;;;;;;;4421182;32;19941;-71
2023/02/05 15:27:12;;;;;;;;;;;;;;;;;;4422971;32;19945;-71
2023/02/05 15:29:37;;;;;;;;;;;;;;;;;;4422268;32;20292;-71
2023/02/05 15:32:02;;;;;;;;;;;;;;;;;;4420675;32;19960;-72
2023/02/05 15:34:28;;;;;;;;;;;;;;;;;;4412673;32;19996;-71
2023/02/05 15:36:53;;;;;;;;;;;;;;;;;;4407555;32;19933;-72
2023/02/05 15:39:18;;;;;;;;;;;;;;;;;;4414946;32;19955;-71
2023/02/05 15:41:44;;;;;;;;;;;;;;;;;;4421666;32;19969;-71
2023/02/05 15:44:09;;;;;;;;;;;;;;;;;;4414247;32;20001;-72
2023/02/05 15:46:34;;;;;;;;;;;;;;;;;;4416501;32;19995;-72
2023/02/05 15:48:59;;;;;;;;;;;;;;;;;;4422310;32;20011;-72
2023/02/05 15:51:25;;;;;;;;;;;;;;;;;;4410308;32;20326;-72
2023/02/05 15:53:51;;;;;;;;;;;;;;;;;;4410913;32;19948;-72
2023/02/05 15:56:16;;;;;;;;;;;;;;;;;;4422558;32;19929;-71
2023/02/05 15:58:41;;;;;;;;;;;;;;;;;;4420492;32;19949;-71
2023/02/05 16:01:06;;;;;;;;;;;;;;;;;;4416267;32;19988;-72
2023/02/05 16:03:32;;;;;;;;;;;;;;;;;;4417729;32;19937;-71
2023/02/05 16:05:57;;;;;;;;;;;;;;;;;;4412113;32;20362;-72
2023/02/05 16:08:22;;;;;;;;;;;;;;;;;;4414692;32;20383;-73
2023/02/05 16:10:49;;;;;;;;;;;;;;;;;;4406078;32;19938;-72
2023/02/05 16:13:15;;;;;;;;;;;;;;;;;;4407946;32;20111;-71
2023/02/05 16:15:40;;;;;;;;;;;;;;;;;;4404890;32;20004;-72
2023/02/05 16:18:05;;;;;;;;;;;;;;;;;;4422029;32;19938;-70
2023/02/05 16:20:30;;;;;;;;;;;;;;;;;;4422058;32;20362;-71
2023/02/05 16:22:55;;;;;;;;;;;;;;;;;;4421459;32;19953;-73
2023/02/05 16:25:21;;;;;;;;;;;;;;;;;;4422756;32;19933;-72
2023/02/05 16:27:46;;;;;;;;;;;;;;;;;;4420423;32;20353;-72
2023/02/05 16:30:12;;;;;;;;;;;;;;;;;;4421553;32;19941;-71
2023/02/05 16:32:37;;;;;;;;;;;;;;;;;;4421186;32;19941;-71
2023/02/05 16:35:02;;;;;;;;;;;;;;;;;;4421070;32;19989;-70
2023/02/05 16:37:27;;;;;;;;;;;;;;;;;;4421508;32;20334;-71
2023/02/05 16:39:53;;;;;;;;;;;;;;;;;;4420699;32;19941;-71
2023/02/05 16:42:18;;;;;;;;;;;;;;;;;;4421961;32;19948;-72